Time;durP1;ratioP1;P1;durP2;ratioP2;P2;SDS_P1;SDS_P2;PMS_P1;PMS_P2;Temp;Humidity;BMP_temperature;BMP_pressure;BME280_temperature;BME280_humidity;BME280_pressure;Samples;Min_cycle;Max_cycle;Signal;HPM_P1;HPM_P2
2022/03/16 00:00:54;;;;;;;10.93;4.05;;;;;;;;;;10496292;28;20552;-79
2022/03/16 00:05:57;;;;;;;9.90;4.25;;;;;;;;;;10506117;28;20055;-76
2022/03/16 00:11:05;;;;;;;15.93;4.75;;;;;;;;;;10494164;28;20028;-78
2022/03/16 00:16:08;;;;;;;11.52;4.25;;;;;;;;;;10486895;28;20045;-77
2022/03/16 00:21:12;;;;;;;8.63;3.42;;;;;;;;;;10483395;28;20094;-77
2022/03/16 00:26:16;;;;;;;9.33;4.30;;;;;;;;;;10478973;28;20083;-76
2022/03/16 00:31:19;;;;;;;13.75;4.97;;;;;;;;;;10469779;28;20044;-77
2022/03/16 00:36:23;;;;;;;12.68;5.00;;;;;;;;;;10477167;28;20079;-77
2022/03/16 00:41:27;;;;;;;11.27;4.00;;;;;;;;;;10484971;28;20041;-78
2022/03/16 00:46:29;;;;;;;11.15;5.32;;;;;;;;;;10483942;28;20090;-75
2022/03/16 00:51:33;;;;;;;10.53;4.27;;;;;;;;;;10485177;28;20040;-78
2022/03/16 00:56:37;;;;;;;14.07;5.90;;;;;;;;;;10486993;28;20509;-81
2022/03/16 01:01:44;;;;;;;12.45;5.97;;;;;;;;;;10506806;28;20033;-80
2022/03/16 01:06:55;;;;;;;12.45;5.80;;;;;;;;;;10509259;28;20044;-79
2022/03/16 01:12:07;;;;;;;14.50;6.70;;;;;;;;;;10502918;28;20033;-80
2022/03/16 01:17:18;;;;;;;13.57;6.07;;;;;;;;;;10495999;28;20382;-80
2022/03/16 01:22:24;;;;;;;13.23;6.68;;;;;;;;;;10484767;28;20399;-81
2022/03/16 01:27:37;;;;;;;9.52;3.88;;;;;;;;;;10480598;28;20059;-81
2022/03/16 01:32:41;;;;;;;13.35;6.72;;;;;;;;;;10486430;28;20060;-80
2022/03/16 01:37:45;;;;;;;14.90;6.63;;;;;;;;;;10475670;28;20040;-78
2022/03/16 01:42:49;;;;;;;18.08;7.70;;;;;;;;;;10474790;28;20041;-78
2022/03/16 01:47:52;;;;;;;16.85;7.57;;;;;;;;;;10472200;28;20060;-79
2022/03/16 01:52:55;;;;;;;18.00;8.15;;;;;;;;;;10471561;28;20518;-81
2022/03/16 01:58:00;;;;;;;15.75;6.75;;;;;;;;;;10496378;28;20113;-77
2022/03/16 02:03:03;;;;;;;17.20;7.22;;;;;;;;;;10479649;28;20031;-78
2022/03/16 02:08:08;;;;;;;20.17;8.13;;;;;;;;;;10472894;28;20493;-78
2022/03/16 02:13:12;;;;;;;20.33;8.93;;;;;;;;;;10487394;28;20055;-77
2022/03/16 02:18:16;;;;;;;18.95;8.75;;;;;;;;;;10486159;28;20094;-77
2022/03/16 02:23:20;;;;;;;22.57;8.57;;;;;;;;;;10481452;28;20049;-77
2022/03/16 02:28:24;;;;;;;19.17;8.10;;;;;;;;;;10485599;28;20040;-79
2022/03/16 02:33:27;;;;;;;21.45;9.27;;;;;;;;;;10489446;28;20096;-81
2022/03/16 02:38:32;;;;;;;18.65;8.20;;;;;;;;;;10491482;28;20072;-80
2022/03/16 02:43:40;;;;;;;21.20;8.05;;;;;;;;;;10490105;28;20037;-78
2022/03/16 02:48:44;;;;;;;14.00;4.93;;;;;;;;;;10486670;28;20048;-76
2022/03/16 02:53:48;;;;;;;19.70;7.25;;;;;;;;;;10523489;22;20093;-73
2022/03/16 02:58:51;;;;;;;10.38;4.40;;;;;;;;;;10554136;28;20452;-74
2022/03/16 03:03:55;;;;;;;20.40;7.63;;;;;;;;;;10550403;28;20424;-72
2022/03/16 03:09:00;;;;;;;16.27;6.67;;;;;;;;;;10546722;28;20057;-75
2022/03/16 03:14:04;;;;;;;27.00;9.32;;;;;;;;;;10550713;28;20055;-74
2022/03/16 03:19:07;;;;;;;16.27;6.30;;;;;;;;;;10550114;28;20127;-72
2022/03/16 03:24:11;;;;;;;23.58;7.35;;;;;;;;;;10549783;28;20043;-74
2022/03/16 03:29:15;;;;;;;20.23;8.45;;;;;;;;;;10565603;28;20031;-75
2022/03/16 03:34:18;;;;;;;22.40;9.98;;;;;;;;;;10549762;28;20050;-74
2022/03/16 03:39:23;;;;;;;18.67;6.83;;;;;;;;;;10566528;28;20032;-74
2022/03/16 03:44:26;;;;;;;21.13;7.50;;;;;;;;;;10551009;28;20489;-75
2022/03/16 03:49:29;;;;;;;13.90;5.43;;;;;;;;;;10544654;28;20085;-74
2022/03/16 03:54:34;;;;;;;9.40;4.85;;;;;;;;;;10562326;28;20043;-76
2022/03/16 03:59:37;;;;;;;16.88;6.20;;;;;;;;;;10564605;28;20036;-73
2022/03/16 04:04:41;;;;;;;16.85;6.13;;;;;;;;;;10548839;28;20039;-73
2022/03/16 04:09:46;;;;;;;21.25;8.57;;;;;;;;;;10566421;28;20039;-75
2022/03/16 04:14:49;;;;;;;11.40;4.72;;;;;;;;;;10561098;28;20043;-74
2022/03/16 04:19:52;;;;;;;16.02;6.63;;;;;;;;;;10565855;28;20039;-77
2022/03/16 04:24:57;;;;;;;11.85;4.85;;;;;;;;;;10550812;28;20043;-74
2022/03/16 04:30:01;;;;;;;15.75;6.32;;;;;;;;;;10547181;28;20455;-73
2022/03/16 04:35:04;;;;;;;23.05;7.90;;;;;;;;;;10565565;28;20066;-72
2022/03/16 04:40:09;;;;;;;20.95;7.88;;;;;;;;;;10545993;28;20153;-73
2022/03/16 04:45:12;;;;;;;27.42;9.38;;;;;;;;;;10565299;28;20038;-73
2022/03/16 04:50:15;;;;;;;10.52;5.70;;;;;;;;;;10541640;28;20067;-73
2022/03/16 04:55:19;;;;;;;19.02;7.38;;;;;;;;;;10538666;28;20055;-75
2022/03/16 05:00:24;;;;;;;28.00;10.10;;;;;;;;;;10530495;28;20043;-74
2022/03/16 05:05:27;;;;;;;21.45;9.15;;;;;;;;;;10527463;28;20070;-73
2022/03/16 05:10:31;;;;;;;24.60;9.93;;;;;;;;;;10534726;28;20043;-76
2022/03/16 05:15:34;;;;;;;25.50;8.45;;;;;;;;;;10566352;28;20046;-74
2022/03/16 05:20:37;;;;;;;26.23;10.13;;;;;;;;;;10538382;28;20074;-74
2022/03/16 05:25:42;;;;;;;26.77;9.98;;;;;;;;;;10538221;28;20043;-74
2022/03/16 05:30:46;;;;;;;23.27;9.50;;;;;;;;;;10550121;28;20074;-74
2022/03/16 05:35:49;;;;;;;22.02;9.55;;;;;;;;;;10571228;28;20133;-73
2022/03/16 05:40:53;;;;;;;26.25;10.20;;;;;;;;;;10579307;28;20020;-74
2022/03/16 05:45:56;;;;;;;;;;;;;;;;;;10568625;28;20096;-74
2022/03/16 05:50:59;;;;;;;26.40;10.32;;;;;;;;;;10575224;28;19916;-73
2022/03/16 05:56:04;;;;;;;25.45;9.90;;;;;;;;;;10568306;28;20046;-74
2022/03/16 06:01:07;;;;;;;22.15;8.93;;;;;;;;;;10594692;28;20031;-75
2022/03/16 06:06:10;;;;;;;27.35;10.02;;;;;;;;;;10589665;28;20042;-74
2022/03/16 06:11:15;;;;;;;28.05;10.63;;;;;;;;;;10577985;28;20038;-73
2022/03/16 06:16:18;;;;;;;24.30;9.00;;;;;;;;;;10562540;28;20402;-74
2022/03/16 06:21:20;;;;;;;25.75;10.50;;;;;;;;;;10536143;28;20165;-74
2022/03/16 06:26:25;;;;;;;25.17;9.88;;;;;;;;;;10548417;28;20051;-74
2022/03/16 06:31:28;;;;;;;27.08;9.60;;;;;;;;;;10547680;28;20035;-75
2022/03/16 06:36:31;;;;;;;26.00;9.20;;;;;;;;;;10551250;28;20393;-74
2022/03/16 06:41:35;;;;;;;23.97;9.67;;;;;;;;;;10567824;28;20040;-75
2022/03/16 06:46:39;;;;;;;22.65;9.05;;;;;;;;;;10594054;28;20153;-73
2022/03/16 06:51:41;;;;;;;27.85;9.48;;;;;;;;;;10564673;28;20093;-75
2022/03/16 06:56:46;;;;;;;24.63;8.65;;;;;;;;;;10563931;28;20035;-74
2022/03/16 07:01:48;;;;;;;21.73;8.95;;;;;;;;;;10547889;28;20027;-73
2022/03/16 07:06:52;;;;;;;25.67;10.30;;;;;;;;;;10553345;28;20127;-76
2022/03/16 07:11:56;;;;;;;27.65;10.00;;;;;;;;;;10557075;28;20047;-75
2022/03/16 07:16:59;;;;;;;27.35;10.90;;;;;;;;;;10544433;28;20155;-75
2022/03/16 07:22:02;;;;;;;27.70;8.90;;;;;;;;;;10559385;28;20038;-75
2022/03/16 07:27:07;;;;;;;38.97;12.82;;;;;;;;;;10542318;28;20044;-73
2022/03/16 07:32:09;;;;;;;34.97;12.70;;;;;;;;;;10561648;28;20073;-75
2022/03/16 07:37:13;;;;;;;53.37;13.53;;;;;;;;;;10524535;28;20491;-73
2022/03/16 07:42:18;;;;;;;30.48;10.57;;;;;;;;;;10528127;28;20044;-73
2022/03/16 07:47:20;;;;;;;38.38;11.35;;;;;;;;;;10537391;28;20082;-73
2022/03/16 07:52:40;;;;;;;27.48;10.32;;;;;;;;;;10539280;28;20036;-73
2022/03/16 07:57:44;;;;;;;31.92;9.38;;;;;;;;;;10552112;28;20058;-72
2022/03/16 08:02:47;;;;;;;25.52;10.52;;;;;;;;;;10533876;28;20089;-72
2022/03/16 08:07:50;;;;;;;29.90;10.05;;;;;;;;;;10534134;28;20067;-72
2022/03/16 08:12:54;;;;;;;26.67;11.02;;;;;;;;;;10557130;28;20066;-72
2022/03/16 08:17:57;;;;;;;25.05;9.68;;;;;;;;;;10540005;28;20505;-72
2022/03/16 08:23:00;;;;;;;28.98;11.18;;;;;;;;;;10532493;28;20062;-71
2022/03/16 08:28:24;;;;;;;26.80;10.27;;;;;;;;;;10534188;28;20121;-73
2022/03/16 08:33:27;;;;;;;27.63;10.77;;;;;;;;;;10533244;28;20047;-73
2022/03/16 08:38:30;;;;;;;30.23;11.43;;;;;;;;;;10556960;28;20571;-72
2022/03/16 08:43:35;;;;;;;24.00;10.40;;;;;;;;;;10558673;28;20470;-72
2022/03/16 08:48:38;;;;;;;26.33;10.25;;;;;;;;;;10536944;28;20059;-72
2022/03/16 08:53:42;;;;;;;31.75;10.60;;;;;;;;;;10559081;28;20034;-73
2022/03/16 08:58:46;;;;;;;25.13;10.18;;;;;;;;;;10555294;28;20054;-72
2022/03/16 09:03:50;;;;;;;26.55;10.40;;;;;;;;;;10538956;28;20055;-73
2022/03/16 09:08:54;;;;;;;27.55;10.57;;;;;;;;;;10555850;28;20392;-73
2022/03/16 09:13:59;;;;;;;31.40;11.68;;;;;;;;;;10564749;28;20597;-71
2022/03/16 09:19:02;;;;;;;28.02;10.02;;;;;;;;;;10560891;28;20051;-72
2022/03/16 09:24:06;;;;;;;26.73;10.63;;;;;;;;;;10545440;28;20135;-72
2022/03/16 09:29:11;;;;;;;25.15;10.63;;;;;;;;;;10538565;28;20044;-72
2022/03/16 09:34:13;;;;;;;;;;;;;;;;;;10561158;28;20028;-72
2022/03/16 09:39:16;;;;;;;25.50;10.00;;;;;;;;;;10552371;28;19957;-72
2022/03/16 09:44:22;;;;;;;21.30;9.20;;;;;;;;;;10538885;28;20524;-71
2022/03/16 09:49:26;;;;;;;22.10;7.57;;;;;;;;;;10532983;28;20040;-73
2022/03/16 09:54:29;;;;;;;21.40;9.20;;;;;;;;;;10537262;28;20047;-72
2022/03/16 09:59:35;;;;;;;19.80;8.27;;;;;;;;;;10556560;28;20146;-75
2022/03/16 10:04:38;;;;;;;15.48;6.40;;;;;;;;;;10532989;28;20100;-73
2022/03/16 10:15:03;;;;;;;13.88;5.63;;;;;;;;;;10558883;28;20028;-72
2022/03/16 10:20:07;;;;;;;14.50;6.30;;;;;;;;;;10536050;28;20453;-73
2022/03/16 10:25:10;;;;;;;22.67;8.10;;;;;;;;;;10541706;28;20052;-72
2022/03/16 10:30:15;;;;;;;16.83;7.15;;;;;;;;;;10571013;28;20605;-72
2022/03/16 10:35:18;;;;;;;22.55;9.02;;;;;;;;;;10561720;28;20047;-73
2022/03/16 10:40:23;;;;;;;17.25;8.07;;;;;;;;;;10546499;28;20472;-72
2022/03/16 10:50:48;;;;;;;11.27;5.70;;;;;;;;;;10548941;28;20040;-73
2022/03/16 10:55:51;;;;;;;17.63;7.57;;;;;;;;;;10563426;28;20035;-73
2022/03/16 11:00:57;;;;;;;20.23;8.63;;;;;;;;;;10547393;28;20051;-72
2022/03/16 11:06:00;;;;;;;13.35;5.35;;;;;;;;;;10545857;28;20058;-72
2022/03/16 11:13:27;;;;;;;17.00;6.43;;;;;;;;;;10561172;28;20134;-73
2022/03/16 11:16:28;;;;;;;18.37;8.00;;;;;;;;;;10573884;28;20035;-72
2022/03/16 11:21:35;;;;;;;10.27;4.53;;;;;;;;;;10570770;28;20068;-74
2022/03/16 11:26:41;;;;;;;16.38;6.82;;;;;;;;;;10566166;28;20051;-73
2022/03/16 11:31:45;;;;;;;17.15;7.88;;;;;;;;;;10572599;28;20329;-73
2022/03/16 11:36:59;;;;;;;23.05;8.48;;;;;;;;;;10552008;28;20032;-73
2022/03/16 11:42:02;;;;;;;22.02;8.85;;;;;;;;;;10567586;28;20050;-73
2022/03/16 11:47:23;;;;;;;11.13;4.73;;;;;;;;;;10543021;28;20361;-74
2022/03/16 11:52:48;;;;;;;8.45;3.78;;;;;;;;;;10548277;28;20059;-71
2022/03/16 11:57:53;;;;;;;16.88;8.32;;;;;;;;;;10555069;28;20468;-73
2022/03/16 12:03:00;;;;;;;16.67;8.02;;;;;;;;;;10538787;28;20046;-74
2022/03/16 12:08:14;;;;;;;12.15;6.55;;;;;;;;;;10559226;28;20064;-72
2022/03/16 12:13:18;;;;;;;18.48;7.18;;;;;;;;;;10537294;28;20131;-73
2022/03/16 12:18:26;;;;;;;17.65;8.40;;;;;;;;;;10561763;28;20043;-75
2022/03/16 12:23:58;;;;;;;8.80;4.55;;;;;;;;;;10546411;28;20138;-73
2022/03/16 12:29:05;;;;;;;8.57;5.00;;;;;;;;;;10585628;22;20051;-71
2022/03/16 12:34:09;;;;;;;13.65;7.47;;;;;;;;;;10544050;28;20058;-70
2022/03/16 12:39:13;;;;;;;16.87;8.03;;;;;;;;;;10564228;27;20448;-73
2022/03/16 12:44:19;;;;;;;18.77;8.20;;;;;;;;;;10542114;27;20438;-72
2022/03/16 12:49:23;;;;;;;12.55;6.30;;;;;;;;;;10566086;27;20074;-73
2022/03/16 12:54:27;;;;;;;16.20;8.05;;;;;;;;;;10550595;27;21264;-71
2022/03/16 12:59:34;;;;;;;16.60;8.48;;;;;;;;;;10537299;27;20100;-72
2022/03/16 13:04:37;;;;;;;11.10;5.65;;;;;;;;;;10553049;27;20031;-71
2022/03/16 13:09:41;;;;;;;10.95;6.40;;;;;;;;;;10551333;27;20524;-72
2022/03/16 13:14:47;;;;;;;13.57;6.30;;;;;;;;;;10576262;27;20070;-72
2022/03/16 13:19:54;;;;;;;15.38;8.18;;;;;;;;;;10543953;28;20123;-71
2022/03/16 13:24:59;;;;;;;15.07;7.15;;;;;;;;;;10565760;28;20130;-72
2022/03/16 13:30:03;;;;;;;;;;;;;;;;;;10566736;28;20067;-71
2022/03/16 13:35:11;;;;;;;15.50;6.65;;;;;;;;;;10553593;28;20515;-72
2022/03/16 13:40:18;;;;;;;16.65;8.13;;;;;;;;;;10543846;28;20047;-72
2022/03/16 13:45:23;;;;;;;12.02;6.82;;;;;;;;;;10564083;28;20154;-72
2022/03/16 13:50:29;;;;;;;19.23;9.65;;;;;;;;;;10560840;28;20240;-72
2022/03/16 13:55:34;;;;;;;12.25;6.22;;;;;;;;;;10573695;27;20126;-73
2022/03/16 14:00:42;;;;;;;13.52;7.72;;;;;;;;;;10563746;27;20557;-71
2022/03/16 14:05:46;;;;;;;16.38;7.72;;;;;;;;;;10562548;27;20043;-70
2022/03/16 14:10:50;;;;;;;15.02;6.68;;;;;;;;;;10544801;28;20047;-70
2022/03/16 14:16:10;;;;;;;17.77;8.07;;;;;;;;;;10546245;28;20040;-70
2022/03/16 14:21:15;;;;;;;17.58;8.88;;;;;;;;;;10562476;27;20035;-74
2022/03/16 14:26:18;;;;;;;17.23;8.02;;;;;;;;;;10555291;28;20039;-73
2022/03/16 14:31:21;;;;;;;18.67;9.25;;;;;;;;;;10575343;27;20055;-72
2022/03/16 14:36:27;;;;;;;16.20;7.15;;;;;;;;;;10552803;28;20127;-69
2022/03/16 14:41:31;;;;;;;18.52;9.68;;;;;;;;;;10558980;27;20055;-72
2022/03/16 14:46:33;;;;;;;20.40;8.23;;;;;;;;;;10550412;28;20040;-72
2022/03/16 14:51:38;;;;;;;14.38;8.18;;;;;;;;;;10573777;27;20133;-74
2022/03/16 14:56:40;;;;;;;17.98;8.10;;;;;;;;;;10554109;27;20057;-70
2022/03/16 15:01:43;;;;;;;16.98;9.60;;;;;;;;;;10591263;27;20055;-71
2022/03/16 15:06:48;;;;;;;15.20;7.10;;;;;;;;;;10566733;27;20113;-72
2022/03/16 15:11:50;;;;;;;14.60;5.97;;;;;;;;;;10556681;27;20477;-72
2022/03/16 15:16:53;;;;;;;17.00;7.82;;;;;;;;;;10558126;27;20042;-71
2022/03/16 15:21:58;;;;;;;22.85;9.82;;;;;;;;;;10536429;28;20226;-70
2022/03/16 15:27:01;;;;;;;17.58;7.43;;;;;;;;;;10528538;27;20051;-72
2022/03/16 15:32:07;;;;;;;15.95;6.95;;;;;;;;;;10542116;27;20449;-71
2022/03/16 15:37:11;;;;;;;20.98;9.57;;;;;;;;;;10528583;27;20061;-71
2022/03/16 15:47:34;;;;;;;31.70;12.40;;;;;;;;;;10541746;27;20031;-71
2022/03/16 15:52:39;;;;;;;14.82;7.40;;;;;;;;;;10525715;28;20040;-70
2022/03/16 15:57:44;;;;;;;16.02;8.32;;;;;;;;;;10556697;27;20048;-71
2022/03/16 16:02:47;;;;;;;13.70;6.88;;;;;;;;;;10539665;27;20100;-72
2022/03/16 16:07:52;;;;;;;20.98;10.05;;;;;;;;;;10556417;27;20027;-71
2022/03/16 16:12:55;;;;;;;21.98;10.25;;;;;;;;;;10532057;27;20075;-70
2022/03/16 16:17:59;;;;;;;16.17;9.15;;;;;;;;;;10533724;28;20046;-70
2022/03/16 16:23:04;;;;;;;22.60;11.07;;;;;;;;;;10549777;27;20077;-71
2022/03/16 16:28:07;;;;;;;24.90;11.13;;;;;;;;;;10526933;27;20457;-71
2022/03/16 16:33:10;;;;;;;20.15;8.73;;;;;;;;;;10528569;28;20048;-71
2022/03/16 16:38:15;;;;;;;22.77;9.85;;;;;;;;;;10540806;27;20035;-72
2022/03/16 16:43:18;;;;;;;25.50;10.77;;;;;;;;;;10559854;27;20446;-71
2022/03/16 16:48:22;;;;;;;;;;;;;;;;;;10530457;27;20043;-69
2022/03/16 16:53:25;;;;;;;;;;;;;;;;;;10534997;28;19928;-74
2022/03/16 16:58:29;;;;;;;25.25;10.43;;;;;;;;;;10557188;27;19923;-74
2022/03/16 17:03:32;;;;;;;22.95;10.68;;;;;;;;;;10541659;28;20036;-71
2022/03/16 17:08:35;;;;;;;15.07;7.18;;;;;;;;;;10552990;28;20112;-72
2022/03/16 17:13:40;;;;;;;22.88;9.68;;;;;;;;;;10568709;28;20056;-70
2022/03/16 17:18:43;;;;;;;26.50;12.10;;;;;;;;;;10534118;28;20040;-71
2022/03/16 17:23:47;;;;;;;27.33;11.95;;;;;;;;;;10540747;28;20043;-71
2022/03/16 17:28:52;;;;;;;31.40;12.50;;;;;;;;;;10545041;27;20060;-72
2022/03/16 17:33:57;;;;;;;23.50;10.40;;;;;;;;;;10552252;28;20058;-72
2022/03/16 17:39:01;;;;;;;24.33;11.35;;;;;;;;;;10547924;27;20471;-69
2022/03/16 17:49:26;;;;;;;26.40;11.57;;;;;;;;;;10569699;27;20666;-72
2022/03/16 17:54:30;;;;;;;26.83;12.40;;;;;;;;;;10550873;27;20100;-71
2022/03/16 17:59:34;;;;;;;20.67;7.78;;;;;;;;;;10565227;27;20085;-73
2022/03/16 18:04:40;;;;;;;20.40;8.27;;;;;;;;;;10572684;27;20060;-74
2022/03/16 18:15:01;;;;;;;27.60;11.45;;;;;;;;;;10544540;28;20044;-71
2022/03/16 18:20:05;;;;;;;23.13;10.65;;;;;;;;;;10572257;27;20590;-69
2022/03/16 18:25:08;;;;;;;28.42;12.80;;;;;;;;;;10569448;27;20665;-70
2022/03/16 18:30:11;;;;;;;;;;;;;;;;;;10611108;22;20044;-72
2022/03/16 18:35:18;;;;;;;29.35;13.73;;;;;;;;;;10596488;27;20374;-73
2022/03/16 18:40:23;;;;;;;30.00;13.45;;;;;;;;;;10578198;27;20062;-72
2022/03/16 18:45:30;;;;;;;32.05;14.13;;;;;;;;;;10613821;27;20027;-73
2022/03/16 18:50:37;;;;;;;26.95;11.65;;;;;;;;;;10599228;27;20132;-72
2022/03/16 18:55:41;;;;;;;32.47;14.00;;;;;;;;;;10590813;27;20055;-72
2022/03/16 19:00:44;;;;;;;31.80;14.00;;;;;;;;;;10597212;27;20072;-74
2022/03/16 19:05:51;;;;;;;32.42;13.10;;;;;;;;;;10574947;27;20042;-71
2022/03/16 19:16:14;;;;;;;30.83;13.43;;;;;;;;;;10586747;27;20461;-72
2022/03/16 19:21:19;;;;;;;30.45;12.82;;;;;;;;;;10590196;27;20053;-71
2022/03/16 19:26:22;;;;;;;23.25;9.00;;;;;;;;;;10570217;27;20115;-71
2022/03/16 19:31:27;;;;;;;;;;;;;;;;;;10573162;27;21695;-71
2022/03/16 19:36:31;;;;;;;37.55;14.45;;;;;;;;;;10596231;27;20397;-72
2022/03/16 19:41:38;;;;;;;31.27;12.43;;;;;;;;;;10597321;27;20053;-72
2022/03/16 19:46:41;;;;;;;32.13;14.00;;;;;;;;;;10569780;27;20035;-72
2022/03/16 19:51:53;;;;;;;33.55;14.60;;;;;;;;;;10585747;27;20475;-73
2022/03/16 19:56:56;;;;;;;32.50;13.93;;;;;;;;;;10577860;27;20032;-72
2022/03/16 20:01:59;;;;;;;34.60;14.27;;;;;;;;;;10572938;27;20388;-72
2022/03/16 20:07:04;;;;;;;39.23;14.10;;;;;;;;;;10580101;27;20035;-72
2022/03/16 20:12:07;;;;;;;31.13;11.38;;;;;;;;;;10569736;27;20424;-70
2022/03/16 20:17:10;;;;;;;41.55;15.80;;;;;;;;;;10582597;27;20047;-73
2022/03/16 20:22:14;;;;;;;35.38;14.57;;;;;;;;;;10587774;27;20063;-72
2022/03/16 20:27:17;;;;;;;36.30;15.70;;;;;;;;;;10584378;27;20035;-73
2022/03/16 20:32:21;;;;;;;37.40;14.43;;;;;;;;;;10602301;27;20112;-72
2022/03/16 20:37:26;;;;;;;28.38;11.55;;;;;;;;;;10592657;27;20038;-73
2022/03/16 20:42:29;;;;;;;25.02;10.70;;;;;;;;;;10594613;27;20142;-71
2022/03/16 20:47:33;;;;;;;30.58;13.95;;;;;;;;;;10589473;27;20038;-73
2022/03/16 20:52:37;;;;;;;42.35;15.48;;;;;;;;;;10591857;27;20050;-73
2022/03/16 20:57:41;;;;;;;42.30;15.07;;;;;;;;;;10619110;27;20099;-72
2022/03/16 21:02:44;;;;;;;31.55;12.43;;;;;;;;;;10605486;27;20031;-73
2022/03/16 21:07:48;;;;;;;35.33;13.45;;;;;;;;;;10593460;27;20042;-73
2022/03/16 21:12:51;;;;;;;;;;;;;;;;;;10606293;27;20069;-74
2022/03/16 21:17:54;;;;;;;27.52;10.25;;;;;;;;;;10617968;27;19973;-75
2022/03/16 21:22:59;;;;;;;42.42;14.77;;;;;;;;;;10614030;27;20134;-73
2022/03/16 21:28:02;;;;;;;38.53;14.93;;;;;;;;;;10597341;27;20046;-71
2022/03/16 21:33:06;;;;;;;19.07;8.03;;;;;;;;;;10609555;27;20054;-70
2022/03/16 21:38:11;;;;;;;23.98;9.40;;;;;;;;;;10584376;27;20040;-71
2022/03/16 21:43:14;;;;;;;35.10;14.77;;;;;;;;;;10604131;27;20031;-72
2022/03/16 21:48:17;;;;;;;33.42;14.10;;;;;;;;;;10590141;27;20069;-73
2022/03/16 21:53:21;;;;;;;40.17;14.85;;;;;;;;;;10595105;27;20067;-73
2022/03/16 21:58:24;;;;;;;37.40;14.70;;;;;;;;;;10611023;27;20043;-73
2022/03/16 22:03:27;;;;;;;45.07;15.50;;;;;;;;;;10582416;27;20043;-71
2022/03/16 22:08:32;;;;;;;37.60;14.70;;;;;;;;;;10593353;27;20031;-72
2022/03/16 22:13:42;;;;;;;32.22;10.70;;;;;;;;;;10609831;27;20059;-71
2022/03/16 22:18:45;;;;;;;39.43;14.73;;;;;;;;;;10595520;27;20088;-72
2022/03/16 22:23:50;;;;;;;32.25;12.95;;;;;;;;;;10608232;27;20054;-72
2022/03/16 22:28:53;;;;;;;38.17;14.30;;;;;;;;;;10624217;27;20426;-72
2022/03/16 22:33:56;;;;;;;26.93;11.00;;;;;;;;;;10604639;27;20043;-72
2022/03/16 22:39:00;;;;;;;31.93;11.37;;;;;;;;;;10580932;27;20031;-71
2022/03/16 22:44:04;;;;;;;28.73;10.90;;;;;;;;;;10585177;27;20443;-73
2022/03/16 22:49:07;;;;;;;40.90;16.40;;;;;;;;;;10600817;27;20050;-71
2022/03/16 22:54:12;;;;;;;41.97;14.43;;;;;;;;;;10613394;27;20114;-71
2022/03/16 22:59:15;;;;;;;45.70;14.87;;;;;;;;;;10626321;27;20043;-71
2022/03/16 23:04:18;;;;;;;43.10;15.02;;;;;;;;;;10622342;27;20043;-72
2022/03/16 23:09:23;;;;;;;32.43;12.47;;;;;;;;;;10626204;27;20035;-71
2022/03/16 23:14:26;;;;;;;31.33;10.87;;;;;;;;;;10626461;27;20035;-72
2022/03/16 23:19:29;;;;;;;36.40;12.47;;;;;;;;;;10592896;27;20035;-72
2022/03/16 23:24:33;;;;;;;35.43;13.27;;;;;;;;;;10617006;27;20026;-71
2022/03/16 23:29:38;;;;;;;34.37;13.60;;;;;;;;;;10588447;27;20099;-71
2022/03/16 23:34:41;;;;;;;30.47;11.63;;;;;;;;;;10595961;27;20092;-72
2022/03/16 23:39:46;;;;;;;35.58;13.38;;;;;;;;;;10609446;27;20035;-71
2022/03/16 23:44:50;;;;;;;45.07;15.87;;;;;;;;;;10591932;27;20032;-72
2022/03/16 23:49:53;;;;;;;47.07;15.73;;;;;;;;;;10597432;27;20032;-72
2022/03/16 23:54:57;;;;;;;34.93;13.00;;;;;;;;;;10603915;27;20036;-72
